Date,TemperatureHighF,TemperatureAvgF,TemperatureLowF,DewpointHighF,DewpointAvgF,DewpointLowF,HumidityHigh,HumidityAvg,HumidityLow,PressureMaxIn,PressureMinIn,WindSpeedMaxMPH,WindSpeedAvgMPH,GustSpeedMaxMPH,PrecipitationSumIn
2013-2-1,36.3,26.6,20.8,-1.6,-10.4,-13.9,20,19,18,29.80,29.36,21,4,21,0.16
2013-2-2,36.7,24.1,16.5,-1.8,-10.8,-16.6,32,21,17,29.89,29.68,13,2,14,0.00
2013-2-3,45.5,24.9,16.2,3.6,-6.1,-12.9,39,26,17,29.68,29.39,7,0,7,0.00
2013-2-4,40.5,25.1,18.9,0.3,-9.5,-15.6,34,21,17,29.59,29.39,16,3,16,0.00
2013-2-5,28.8,25.2,19.9,2.9,-4.8,-14.7,36,27,19,29.62,29.54,4,0,4,0.00
2013-2-6,48.0,30.4,21.2,8.4,-1.2,-12.1,44,27,17,29.95,29.54,12,2,12,0.00
2013-2-7,35.1,25.3,19.0,-2.0,-11.0,-15.6,22,19,17,30.13,29.95,8,0,9,0.00
2013-2-8,31.5,28.5,23.9,12.1,3.6,-9.3,45,35,21,29.98,29.21,20,1,20,0.00
2013-2-9,34.7,23.7,14.9,5.2,-6.4,-18.0,44,27,18,29.92,29.33,25,7,25,0.00
2013-2-10,50.9,24.6,12.0,5.7,-10.9,-19.5,22,20,16,30.07,29.92,11,1,11,0.00
2013-2-11,42.4,34.1,21.9,29.2,12.7,-11.1,68,43,21,29.98,29.30,9,0,9,0.00
2013-2-12,49.1,38.6,33.4,30.4,4.1,-3.3,74,26,16,29.57,29.33,18,2,18,0.04
2013-2-13,55.0,35.3,23.5,9.3,-0.6,-6.6,37,22,15,29.57,29.33,8,0,9,0.00
2013-2-14,55.8,35.8,26.2,11.9,4.6,-5.7,44,28,15,29.62,29.33,9,0,10,0.00
2013-2-15,55.0,32.2,25.7,13.9,7.3,2.9,44,36,15,29.62,29.59,4,0,4,0.00
2013-2-16,44.6,33.5,27.7,12.5,1.7,-8.9,42,27,18,29.59,29.33,12,1,14,0.04
2013-2-17,35.1,24.0,14.4,-2.1,-11.7,-18.4,21,20,18,29.51,29.21,24,6,24,0.00
2013-2-18,39.4,23.7,13.5,0.1,-12.0,-18.6,22,20,17,29.83,29.51,22,5,22,0.00
2013-2-19,47.1,34.0,19.4,28.9,5.1,-15.1,66,32,17,29.83,29.27,9,0,10,0.35
2013-2-20,41.0,29.7,22.6,7.2,-6.7,-12.9,30,20,18,29.54,29.30,18,4,18,0.04
2013-2-21,43.2,26.7,21.0,2.1,-9.5,-13.8,20,20,18,29.89,29.54,21,5,21,0.00
2013-2-22,47.7,30.4,20.1,4.0,-4.6,-13.6,27,22,17,30.01,29.86,12,0,13,0.00
2013-2-23,37.6,34.7,33.3,20.6,13.6,1.2,56,42,25,29.92,29.45,5,0,8,0.16
2013-2-24,43.5,36.8,31.8,24.1,12.3,-1.1,65,39,20,29.57,29.36,12,0,12,0.16
2013-2-25,55.9,37.8,28.8,8.5,0.1,-5.4,28,20,15,29.86,29.57,11,0,11,0.00
2013-2-26,44.4,34.2,25.5,14.1,4.3,-2.6,45,29,18,29.95,29.62,9,0,9,0.16
2013-2-27,43.0,38.9,33.1,34.6,26.7,14.6,73,62,46,29.62,29.15,13,0,14,1.46
2013-2-28,54.3,39.9,33.3,29.6,17.0,4.0,72,44,16,29.27,29.15,5,0,5,0.00